createdAt,value
2016-10-30T00:00:35.513Z,0
2016-10-30T00:01:35.185Z,0
2016-10-30T00:02:35.481Z,0
2016-10-30T00:03:35.162Z,0
2016-10-30T00:04:35.450Z,0
2016-10-30T00:05:35.125Z,0
2016-10-30T00:06:35.112Z,0
2016-10-30T00:07:35.397Z,0
2016-10-30T00:08:35.075Z,0
2016-10-30T00:09:35.065Z,0
2016-10-30T00:10:35.352Z,0
2016-10-30T00:11:35.019Z,0
2016-10-30T00:12:35.008Z,0
2016-10-30T00:13:34.995Z,0
2016-10-30T00:14:34.976Z,0
2016-10-30T00:15:34.961Z,0
2016-10-30T00:16:34.943Z,0
2016-10-30T00:17:34.943Z,0
2016-10-30T00:18:34.908Z,0
2016-10-30T00:19:35.206Z,0
2016-10-30T00:20:34.917Z,0
2016-10-30T00:21:34.864Z,0
2016-10-30T00:22:35.162Z,0
2016-10-30T00:23:34.827Z,0
2016-10-30T00:24:34.809Z,0
2016-10-30T00:25:34.802Z,0
2016-10-30T00:26:34.783Z,0
2016-10-30T00:27:34.773Z,0
2016-10-30T00:28:34.745Z,0
2016-10-30T00:29:34.730Z,0
2016-10-30T00:30:35.027Z,0
2016-10-30T00:31:34.699Z,0
2016-10-30T00:32:34.720Z,0
2016-10-30T00:33:34.663Z,0
2016-10-30T00:34:35.622Z,0
2016-10-30T00:35:34.945Z,0
2016-10-30T00:36:34.620Z,0
2016-10-30T00:37:34.604Z,0
2016-10-30T00:38:34.592Z,0
2016-10-30T00:39:34.878Z,0
2016-10-30T00:40:34.875Z,0
2016-10-30T00:41:35.173Z,0
2016-10-30T00:42:34.521Z,0
2016-10-30T00:43:34.502Z,0
2016-10-30T00:44:34.487Z,0
2016-10-30T00:45:34.472Z,0
2016-10-30T00:46:34.458Z,0
2016-10-30T00:47:34.756Z,0
2016-10-30T00:48:34.773Z,0
2016-10-30T00:49:34.422Z,0
2016-10-30T00:50:34.391Z,0
2016-10-30T00:51:34.996Z,0
2016-10-30T00:52:34.351Z,0
2016-10-30T00:53:34.343Z,0
2016-10-30T00:54:34.326Z,0
2016-10-30T00:55:34.623Z,0
2016-10-30T00:56:34.295Z,0
2016-10-30T00:57:34.276Z,0
2016-10-30T00:58:34.260Z,0
2016-10-30T00:59:34.244Z,0
2016-10-30T01:00:34.232Z,0
2016-10-30T01:01:34.560Z,0
2016-10-30T01:02:34.198Z,0
2016-10-30T01:03:34.222Z,0
2016-10-30T01:04:34.166Z,0
2016-10-30T01:05:34.147Z,0
2016-10-30T01:06:34.132Z,0
2016-10-30T01:07:34.146Z,0
2016-10-30T01:08:34.141Z,0
2016-10-30T01:09:34.400Z,0
2016-10-30T01:10:34.077Z,0
2016-10-30T01:11:34.366Z,0
2016-10-30T01:12:34.345Z,0
2016-10-30T01:13:34.022Z,0
2016-10-30T01:14:34.003Z,0
2016-10-30T01:15:34.024Z,0
2016-10-30T01:16:33.970Z,0
2016-10-30T01:17:33.955Z,0
2016-10-30T01:18:33.972Z,0
2016-10-30T01:19:33.965Z,0
2016-10-30T01:20:33.900Z,0
2016-10-30T01:21:33.888Z,0
2016-10-30T01:22:33.886Z,0
2016-10-30T01:23:33.866Z,0
2016-10-30T01:24:34.155Z,0
2016-10-30T01:25:33.823Z,0
2016-10-30T01:26:33.841Z,0
2016-10-30T01:27:33.797Z,0
2016-10-30T01:28:33.828Z,0
2016-10-30T01:29:33.764Z,0
2016-10-30T01:30:33.742Z,0
2016-10-30T01:31:33.730Z,0
2016-10-30T01:32:34.060Z,0
2016-10-30T01:33:33.891Z,0
2016-10-30T01:34:33.994Z,0
2016-10-30T01:35:33.969Z,0
2016-10-30T01:36:33.642Z,0
2016-10-30T01:37:33.631Z,0
2016-10-30T01:38:33.646Z,0
2016-10-30T01:39:33.906Z,0
2016-10-30T01:40:33.897Z,0
2016-10-30T01:41:33.565Z,0
2016-10-30T01:42:33.543Z,0
2016-10-30T01:43:33.565Z,0
2016-10-30T01:44:33.516Z,0
2016-10-30T01:45:33.535Z,0
2016-10-30T01:46:33.486Z,0
2016-10-30T01:47:33.472Z,0
2016-10-30T01:48:33.453Z,0
2016-10-30T01:49:33.443Z,0
2016-10-30T01:50:33.460Z,0
2016-10-30T01:51:33.409Z,0
2016-10-30T01:52:33.400Z,0
2016-10-30T01:53:33.376Z,0
2016-10-30T01:54:33.355Z,0
2016-10-30T01:55:33.345Z,0
2016-10-30T01:56:33.640Z,0
2016-10-30T01:57:33.322Z,0
2016-10-30T01:58:33.494Z,0
2016-10-30T01:59:33.605Z,0
2016-10-30T02:00:33.273Z,0
2016-10-30T02:01:33.295Z,0
2016-10-30T02:02:33.229Z,0
2016-10-30T02:03:33.525Z,0
2016-10-30T02:04:33.206Z,0
2016-10-30T02:05:33.193Z,0
2016-10-30T02:06:33.172Z,0
2016-10-30T02:07:45.881Z,0
2016-10-30T02:08:33.128Z,0
2016-10-30T02:09:33.110Z,0
2016-10-30T02:10:33.101Z,0
2016-10-30T02:11:33.083Z,0
2016-10-30T02:12:33.064Z,0
2016-10-30T02:13:33.511Z,0
2016-10-30T02:14:33.058Z,0
2016-10-30T02:15:33.024Z,0
2016-10-30T02:16:33.004Z,0
2016-10-30T02:17:32.985Z,0
2016-10-30T02:18:32.968Z,0
2016-10-30T02:19:32.952Z,0
2016-10-30T02:20:32.939Z,0
2016-10-30T02:21:32.958Z,0
2016-10-30T02:22:32.910Z,0
2016-10-30T02:23:33.198Z,0
2016-10-30T02:24:33.186Z,0
2016-10-30T02:25:32.854Z,0
2016-10-30T02:26:32.844Z,0
2016-10-30T02:27:32.869Z,0
2016-10-30T02:28:32.809Z,0
2016-10-30T02:29:33.418Z,0
2016-10-30T02:30:32.776Z,0
2016-10-30T02:31:32.766Z,0
2016-10-30T02:32:32.752Z,0
2016-10-30T02:33:32.726Z,0
2016-10-30T02:34:32.713Z,0
2016-10-30T02:35:32.696Z,0
2016-10-30T02:36:32.684Z,0
2016-10-30T02:37:32.979Z,0
2016-10-30T02:38:32.700Z,0
2016-10-30T02:39:32.635Z,0
2016-10-30T02:40:32.623Z,0
2016-10-30T02:41:32.602Z,0
2016-10-30T02:42:32.589Z,0
2016-10-30T02:43:32.609Z,0
2016-10-30T02:44:32.553Z,0
2016-10-30T02:45:32.537Z,0
2016-10-30T02:46:32.521Z,0
2016-10-30T02:47:32.815Z,0
2016-10-30T02:48:32.487Z,0
2016-10-30T02:49:32.974Z,0
2016-10-30T02:50:32.491Z,0
2016-10-30T02:51:32.449Z,0
2016-10-30T02:52:32.431Z,0
2016-10-30T02:53:32.727Z,0
2016-10-30T02:54:32.393Z,0
2016-10-30T02:55:32.372Z,0
2016-10-30T02:56:32.985Z,0
2016-10-30T02:57:32.657Z,0
2016-10-30T02:58:32.952Z,0
2016-10-30T02:59:32.462Z,0
2016-10-30T03:00:32.293Z,0
2016-10-30T03:01:32.587Z,0
2016-10-30T03:02:32.260Z,0
2016-10-30T03:03:32.243Z,0
2016-10-30T03:04:32.540Z,0
2016-10-30T03:05:32.529Z,0
2016-10-30T03:06:32.232Z,0
2016-10-30T03:07:32.492Z,0
2016-10-30T03:08:32.167Z,0
2016-10-30T03:09:32.156Z,0
2016-10-30T03:10:32.132Z,0
2016-10-30T03:11:32.115Z,0
2016-10-30T03:12:32.096Z,0
2016-10-30T03:13:32.397Z,0
2016-10-30T03:14:32.072Z,0
2016-10-30T03:15:32.055Z,0
2016-10-30T03:16:32.035Z,0
2016-10-30T03:17:32.015Z,0
2016-10-30T03:18:32.315Z,0
2016-10-30T03:19:32.291Z,0
2016-10-30T03:20:31.965Z,0
2016-10-30T03:21:32.614Z,0
2016-10-30T03:22:31.960Z,0
2016-10-30T03:23:31.911Z,0
2016-10-30T03:24:31.918Z,0
2016-10-30T03:25:31.882Z,0
2016-10-30T03:26:31.863Z,0
2016-10-30T03:27:31.853Z,0
2016-10-30T03:28:31.835Z,0
2016-10-30T03:29:31.815Z,0
2016-10-30T03:30:31.795Z,0
2016-10-30T03:31:31.793Z,0
2016-10-30T03:32:32.092Z,0
2016-10-30T03:33:31.762Z,0
2016-10-30T03:34:31.732Z,0
2016-10-30T03:35:31.897Z,0
2016-10-30T03:36:31.699Z,0
2016-10-30T03:37:32.010Z,0
2016-10-30T03:38:31.983Z,0
2016-10-30T03:39:31.649Z,0
2016-10-30T03:40:31.632Z,0
2016-10-30T03:41:31.612Z,0
2016-10-30T03:42:31.634Z,0
2016-10-30T03:43:31.900Z,0
2016-10-30T03:44:31.566Z,0
2016-10-30T03:45:31.550Z,0
2016-10-30T03:46:31.542Z,0
2016-10-30T03:47:31.512Z,0
2016-10-30T03:48:31.495Z,0
2016-10-30T03:49:31.520Z,0
2016-10-30T03:50:31.620Z,0
2016-10-30T03:51:31.453Z,0
2016-10-30T03:52:31.457Z,0
2016-10-30T03:53:31.730Z,0
2016-10-30T03:54:31.708Z,0
2016-10-30T03:55:31.427Z,0
2016-10-30T03:56:31.364Z,0
2016-10-30T03:57:31.660Z,0
2016-10-30T03:58:31.540Z,0
2016-10-30T03:59:31.314Z,0
2016-10-30T04:00:31.772Z,0
2016-10-30T04:01:31.599Z,0
2016-10-30T04:02:31.274Z,0
2016-10-30T04:03:31.556Z,0
2016-10-30T04:04:31.234Z,0
2016-10-30T04:05:31.522Z,0
2016-10-30T04:06:31.506Z,0
2016-10-30T04:07:31.488Z,0
2016-10-30T04:08:31.158Z,0
2016-10-30T04:09:31.149Z,0
2016-10-30T04:10:31.278Z,0
2016-10-30T04:11:31.425Z,0
2016-10-30T04:12:31.099Z,0
2016-10-30T04:13:31.079Z,0
2016-10-30T04:14:31.057Z,0
2016-10-30T04:15:31.055Z,0
2016-10-30T04:16:31.343Z,0
2016-10-30T04:17:31.007Z,0
2016-10-30T04:18:30.997Z,0
2016-10-30T04:19:30.977Z,0
2016-10-30T04:20:30.960Z,0
2016-10-30T04:21:30.945Z,0
2016-10-30T04:22:30.936Z,0
2016-10-30T04:23:31.225Z,0
2016-10-30T04:24:31.203Z,0
2016-10-30T04:25:30.879Z,0
2016-10-30T04:26:30.864Z,0
2016-10-30T04:27:30.847Z,0
2016-10-30T04:28:30.868Z,0
2016-10-30T04:29:31.124Z,0
2016-10-30T04:30:30.790Z,0
2016-10-30T04:31:30.781Z,0
2016-10-30T04:32:31.073Z,0
2016-10-30T04:33:30.750Z,0
2016-10-30T04:34:31.354Z,0
2016-10-30T04:35:31.020Z,0
2016-10-30T04:36:30.693Z,0
2016-10-30T04:37:30.714Z,0
2016-10-30T04:38:30.973Z,0
2016-10-30T04:39:30.652Z,0
2016-10-30T04:40:30.627Z,0
2016-10-30T04:41:30.609Z,0
2016-10-30T04:42:30.604Z,0
2016-10-30T04:43:30.570Z,0
2016-10-30T04:44:30.555Z,0
2016-10-30T04:45:30.553Z,0
2016-10-30T04:46:30.991Z,0
2016-10-30T04:47:30.825Z,0
2016-10-30T04:48:30.495Z,0
2016-10-30T04:49:30.531Z,0
2016-10-30T04:50:30.472Z,0
2016-10-30T04:51:30.443Z,0
2016-10-30T04:52:30.417Z,0
2016-10-30T04:53:30.412Z,0
2016-10-30T04:54:30.390Z,0
2016-10-30T04:55:30.695Z,0
2016-10-30T04:56:30.527Z,0
2016-10-30T04:57:30.655Z,0
2016-10-30T04:58:30.957Z,0
2016-10-30T04:59:30.621Z,0
2016-10-30T05:00:30.297Z,0
2016-10-30T05:01:30.311Z,0
2016-10-30T05:02:30.289Z,0
2016-10-30T05:03:30.553Z,0
2016-10-30T05:04:30.529Z,0
2016-10-30T05:05:30.524Z,0
2016-10-30T05:06:30.187Z,0
2016-10-30T05:07:30.480Z,0
2016-10-30T05:08:30.149Z,0
2016-10-30T05:09:30.133Z,0
2016-10-30T05:10:30.115Z,0
2016-10-30T05:11:30.094Z,0
2016-10-30T05:12:30.714Z,0
2016-10-30T05:13:30.069Z,0
2016-10-30T05:14:30.357Z,0
2016-10-30T05:15:30.032Z,0
2016-10-30T05:16:30.060Z,0
2016-10-30T05:17:29.999Z,0
2016-10-30T05:18:29.978Z,0
2016-10-30T05:19:29.979Z,0
2016-10-30T05:20:29.949Z,0
2016-10-30T05:21:30.547Z,0
2016-10-30T05:22:29.919Z,0
2016-10-30T05:23:30.210Z,0
2016-10-30T05:24:29.879Z,0
2016-10-30T05:25:29.857Z,0
2016-10-30T05:26:30.468Z,0
2016-10-30T05:27:29.830Z,0
2016-10-30T05:28:29.807Z,0
2016-10-30T05:29:30.105Z,0
2016-10-30T05:30:29.780Z,0
2016-10-30T05:31:29.762Z,0
2016-10-30T05:32:29.796Z,0
2016-10-30T05:33:30.348Z,0
2016-10-30T05:34:30.013Z,0
2016-10-30T05:35:29.685Z,0
2016-10-30T05:36:29.670Z,0
2016-10-30T05:37:29.816Z,0
2016-10-30T05:38:29.953Z,0
2016-10-30T05:39:29.615Z,0
2016-10-30T05:40:29.913Z,0
2016-10-30T05:41:29.595Z,0
2016-10-30T05:42:29.565Z,0
2016-10-30T05:43:29.546Z,0
2016-10-30T05:44:29.533Z,0
2016-10-30T05:45:29.552Z,0
2016-10-30T05:46:29.811Z,0
2016-10-30T05:47:29.858Z,0
2016-10-30T05:48:29.459Z,0
2016-10-30T05:49:29.443Z,0
2016-10-30T05:50:29.430Z,0
2016-10-30T05:51:29.410Z,4
2016-10-30T05:52:29.537Z,4
2016-10-30T05:53:29.370Z,4
2016-10-30T05:54:29.665Z,4
2016-10-30T05:55:29.338Z,4
2016-10-30T05:56:29.637Z,8
2016-10-30T05:57:29.313Z,4
2016-10-30T05:58:30.004Z,4
2016-10-30T05:59:29.278Z,8
2016-10-30T06:00:29.247Z,12
2016-10-30T06:01:29.544Z,12
2016-10-30T06:02:29.258Z,16
2016-10-30T06:03:29.828Z,16
2016-10-30T06:04:29.189Z,20
2016-10-30T06:05:29.794Z,24
2016-10-30T06:06:29.157Z,28
2016-10-30T06:07:29.275Z,36
2016-10-30T06:08:29.117Z,40
2016-10-30T06:09:29.411Z,48
2016-10-30T06:10:29.070Z,56
2016-10-30T06:11:29.060Z,60
2016-10-30T06:12:29.038Z,72
2016-10-30T06:13:29.030Z,80
2016-10-30T06:14:29.011Z,88
2016-10-30T06:15:28.987Z,96
2016-10-30T06:16:28.976Z,108
2016-10-30T06:17:28.959Z,120
2016-10-30T06:18:28.938Z,132
2016-10-30T06:19:29.236Z,148
2016-10-30T06:20:28.935Z,164
2016-10-30T06:21:29.206Z,176
2016-10-30T06:22:28.866Z,196
2016-10-30T06:23:29.041Z,208
2016-10-30T06:24:29.145Z,228
2016-10-30T06:25:28.815Z,248
2016-10-30T06:26:29.117Z,264
2016-10-30T06:27:28.783Z,284
2016-10-30T06:28:28.757Z,304
2016-10-30T06:29:29.074Z,324
2016-10-30T06:30:29.046Z,344
2016-10-30T06:31:28.712Z,360
2016-10-30T06:32:28.700Z,380
2016-10-30T06:33:28.671Z,404
2016-10-30T06:34:28.659Z,428
2016-10-30T06:35:28.956Z,452
2016-10-30T06:36:28.937Z,476
2016-10-30T06:37:28.623Z,512
2016-10-30T06:38:28.590Z,556
2016-10-30T06:39:28.567Z,608
2016-10-30T06:40:28.555Z,620
2016-10-30T06:41:28.538Z,644
2016-10-30T06:42:28.522Z,656
2016-10-30T06:43:28.653Z,664
2016-10-30T06:44:28.801Z,696
2016-10-30T06:45:28.476Z,736
2016-10-30T06:46:28.768Z,776
2016-10-30T06:47:28.751Z,856
2016-10-30T06:48:28.435Z,904
2016-10-30T06:49:28.453Z,956
2016-10-30T06:50:28.747Z,964
2016-10-30T06:51:28.681Z,1008
2016-10-30T06:52:28.355Z,1032
2016-10-30T06:53:28.955Z,1072
2016-10-30T06:54:28.320Z,1116
2016-10-30T06:55:28.292Z,1152
2016-10-30T06:56:28.293Z,1232
2016-10-30T06:57:28.636Z,1176
2016-10-30T06:58:28.445Z,1196
2016-10-30T06:59:28.856Z,1252
2016-10-30T07:00:28.212Z,1332
2016-10-30T07:01:28.505Z,1364
2016-10-30T07:02:28.487Z,1348
2016-10-30T07:03:28.472Z,1352
2016-10-30T07:04:28.140Z,1356
2016-10-30T07:05:28.121Z,1444
2016-10-30T07:06:28.423Z,1492
2016-10-30T07:07:28.090Z,1480
2016-10-30T07:08:28.076Z,1456
2016-10-30T07:09:28.391Z,1448
2016-10-30T07:10:28.042Z,1460
2016-10-30T07:11:28.034Z,1472
2016-10-30T07:12:28.379Z,1492
2016-10-30T07:13:27.994Z,1520
2016-10-30T07:14:28.295Z,1560
2016-10-30T07:15:27.965Z,1588
2016-10-30T07:16:27.938Z,1620
2016-10-30T07:17:28.243Z,1572
2016-10-30T07:18:27.909Z,1496
2016-10-30T07:19:28.201Z,1388
2016-10-30T07:20:28.226Z,1352
2016-10-30T07:21:27.857Z,1368
2016-10-30T07:22:27.842Z,1376
2016-10-30T07:23:27.825Z,1432
2016-10-30T07:24:27.811Z,1460
2016-10-30T07:25:28.108Z,1604
2016-10-30T07:26:28.092Z,1576
2016-10-30T07:27:27.763Z,1408
2016-10-30T07:28:28.056Z,1424
2016-10-30T07:29:27.722Z,1556
2016-10-30T07:30:27.704Z,1604
2016-10-30T07:31:28.321Z,1600
2016-10-30T07:32:28.301Z,1424
2016-10-30T07:33:27.667Z,1556
2016-10-30T07:34:27.639Z,1572
2016-10-30T07:35:27.660Z,1644
2016-10-30T07:36:27.928Z,1832
2016-10-30T07:37:27.590Z,1848
2016-10-30T07:38:27.578Z,1668
2016-10-30T07:39:27.557Z,1736
2016-10-30T07:40:27.545Z,1816
2016-10-30T07:41:27.842Z,1832
2016-10-30T07:42:27.523Z,1804
2016-10-30T07:43:27.820Z,1812
2016-10-30T07:44:27.625Z,1844
2016-10-30T07:45:27.776Z,1944
2016-10-30T07:46:27.453Z,2004
2016-10-30T07:47:27.749Z,1844
2016-10-30T07:48:27.417Z,1832
2016-10-30T07:49:27.772Z,1952
2016-10-30T07:50:27.379Z,2156
2016-10-30T07:51:27.374Z,2376
2016-10-30T07:52:27.352Z,2564
2016-10-30T07:53:27.338Z,2720
2016-10-30T07:54:27.370Z,2844
2016-10-30T07:55:27.625Z,2928
2016-10-30T07:56:27.608Z,2728
2016-10-30T07:57:27.295Z,2412
2016-10-30T07:58:27.266Z,2156
2016-10-30T07:59:27.763Z,2120
2016-10-30T08:00:27.853Z,2204
2016-10-30T08:01:27.511Z,2364
2016-10-30T08:02:27.209Z,2620
2016-10-30T08:03:27.540Z,2844
2016-10-30T08:04:27.212Z,3108
2016-10-30T08:05:27.483Z,3356
2016-10-30T08:06:27.456Z,3404
2016-10-30T08:07:27.435Z,3328
2016-10-30T08:08:27.770Z,3272
2016-10-30T08:09:27.693Z,3488
2016-10-30T08:10:27.368Z,3940
2016-10-30T08:11:27.044Z,4332
2016-10-30T08:12:27.075Z,4088
2016-10-30T08:13:27.326Z,3752
2016-10-30T08:14:27.083Z,3096
2016-10-30T08:15:27.302Z,3392
2016-10-30T08:16:26.967Z,3452
2016-10-30T08:17:27.255Z,3552
2016-10-30T08:18:26.936Z,3436
2016-10-30T08:19:26.908Z,4388
2016-10-30T08:20:26.900Z,5056
2016-10-30T08:21:26.910Z,5712
2016-10-30T08:22:27.249Z,6576
2016-10-30T08:23:26.858Z,6244
2016-10-30T08:24:26.838Z,5180
2016-10-30T08:25:27.132Z,3936
2016-10-30T08:26:26.799Z,3684
2016-10-30T08:27:27.111Z,3160
2016-10-30T08:28:26.824Z,2908
2016-10-30T08:29:26.761Z,3296
2016-10-30T08:30:26.855Z,4320
2016-10-30T08:31:26.727Z,4508
2016-10-30T08:32:26.716Z,4400
2016-10-30T08:33:26.698Z,4240
2016-10-30T08:34:26.689Z,4884
2016-10-30T08:35:26.984Z,3896
2016-10-30T08:36:27.278Z,3436
2016-10-30T08:37:27.265Z,4824
2016-10-30T08:38:26.625Z,4772
2016-10-30T08:39:26.611Z,5600
2016-10-30T08:40:26.597Z,6088
2016-10-30T08:41:26.583Z,5844
2016-10-30T08:42:26.564Z,4524
2016-10-30T08:43:26.859Z,4428
2016-10-30T08:44:26.849Z,4204
2016-10-30T08:45:26.668Z,4136
2016-10-30T08:46:26.830Z,4052
2016-10-30T08:47:26.806Z,4056
2016-10-30T08:48:26.476Z,4040
2016-10-30T08:49:26.459Z,4336
2016-10-30T08:50:26.764Z,4880
2016-10-30T08:51:26.428Z,5116
2016-10-30T08:52:26.420Z,5100
2016-10-30T08:53:26.412Z,4808
2016-10-30T08:54:26.710Z,4524
2016-10-30T08:55:26.379Z,4296
2016-10-30T08:56:26.363Z,4448
2016-10-30T08:57:26.349Z,3920
2016-10-30T08:58:26.383Z,3632
2016-10-30T08:59:26.320Z,3532
2016-10-30T09:00:26.306Z,4308
2016-10-30T09:01:26.289Z,4272
2016-10-30T09:02:26.906Z,4248
2016-10-30T09:03:26.259Z,4156
2016-10-30T09:04:26.245Z,3372
2016-10-30T09:05:26.231Z,3164
2016-10-30T09:06:26.216Z,3656
2016-10-30T09:07:26.200Z,3888
2016-10-30T09:08:26.190Z,3884
2016-10-30T09:09:26.485Z,3832
2016-10-30T09:10:26.167Z,3924
2016-10-30T09:11:26.457Z,3964
2016-10-30T09:12:26.124Z,3796
2016-10-30T09:13:26.121Z,4012
2016-10-30T09:14:26.107Z,4468
2016-10-30T09:15:26.093Z,4792
2016-10-30T09:16:26.078Z,5232
2016-10-30T09:17:26.064Z,4928
2016-10-30T09:18:26.065Z,4756
2016-10-30T09:19:26.665Z,4716
2016-10-30T09:20:26.030Z,4588
2016-10-30T09:21:26.320Z,4668
2016-10-30T09:22:26.360Z,4344
2016-10-30T09:23:26.297Z,4016
2016-10-30T09:24:26.275Z,4224
2016-10-30T09:25:25.956Z,4732
2016-10-30T09:26:25.943Z,5032
2016-10-30T09:27:25.924Z,5140
2016-10-30T09:28:26.541Z,5468
2016-10-30T09:29:26.253Z,6128
2016-10-30T09:30:26.204Z,6516
2016-10-30T09:31:26.181Z,6836
2016-10-30T09:32:26.167Z,7552
2016-10-30T09:33:25.894Z,8368
2016-10-30T09:34:25.839Z,8616
2016-10-30T09:35:26.183Z,9056
2016-10-30T09:36:25.896Z,8800
2016-10-30T09:37:25.795Z,7812
2016-10-30T09:38:25.777Z,6920
2016-10-30T09:39:25.761Z,7196
2016-10-30T09:40:25.771Z,7784
2016-10-30T09:41:25.793Z,8036
2016-10-30T09:42:25.738Z,7696
2016-10-30T09:43:26.364Z,7852
2016-10-30T09:44:25.710Z,8328
2016-10-30T09:45:25.730Z,8468
2016-10-30T09:46:25.680Z,8172
2016-10-30T09:47:25.974Z,7428
2016-10-30T09:48:25.687Z,6692
2016-10-30T09:49:25.636Z,6156
2016-10-30T09:50:25.624Z,6152
2016-10-30T09:51:25.754Z,6152
2016-10-30T09:52:25.593Z,5536
2016-10-30T09:53:25.909Z,5240
2016-10-30T09:54:25.572Z,5500
2016-10-30T09:55:25.604Z,5852
2016-10-30T09:56:25.859Z,5820
2016-10-30T09:57:25.846Z,5628
2016-10-30T09:58:25.517Z,6164
2016-10-30T09:59:25.710Z,7256
2016-10-30T10:00:25.807Z,7996
2016-10-30T10:01:25.479Z,7988
2016-10-30T10:02:25.467Z,8264
2016-10-30T10:03:25.448Z,8816
2016-10-30T10:04:25.756Z,8888
2016-10-30T10:05:25.429Z,9328
2016-10-30T10:06:25.417Z,9496
2016-10-30T10:07:25.742Z,8836
2016-10-30T10:08:25.391Z,8156
2016-10-30T10:09:25.695Z,7636
2016-10-30T10:10:26.027Z,7776
2016-10-30T10:11:25.354Z,8576
2016-10-30T10:12:25.338Z,8296
2016-10-30T10:13:25.334Z,7840
2016-10-30T10:14:25.630Z,8384
2016-10-30T10:15:25.315Z,8548
2016-10-30T10:16:25.290Z,8472
2016-10-30T10:17:25.327Z,9060
2016-10-30T10:18:25.272Z,8176
2016-10-30T10:19:25.882Z,7848
2016-10-30T10:20:25.876Z,7648
2016-10-30T10:21:25.396Z,7348
2016-10-30T10:22:25.213Z,7924
2016-10-30T10:23:25.210Z,8236
2016-10-30T10:24:25.200Z,8760
2016-10-30T10:25:25.183Z,8312
2016-10-30T10:26:25.493Z,7908
2016-10-30T10:27:25.179Z,7576
2016-10-30T10:28:25.169Z,7688
2016-10-30T10:29:25.175Z,8780
2016-10-30T10:30:25.445Z,10036
2016-10-30T10:31:25.127Z,10008
2016-10-30T10:32:25.119Z,9548
2016-10-30T10:33:25.420Z,9220
2016-10-30T10:34:25.078Z,9592
2016-10-30T10:35:25.071Z,10268
2016-10-30T10:36:25.098Z,10444
2016-10-30T10:37:25.067Z,9656
2016-10-30T10:38:25.350Z,7696
2016-10-30T10:39:25.018Z,6744
2016-10-30T10:40:25.023Z,7040
2016-10-30T10:41:24.998Z,8776
2016-10-30T10:42:24.997Z,9896
2016-10-30T10:43:24.988Z,10184
2016-10-30T10:44:25.006Z,10304
2016-10-30T10:45:25.269Z,10476
2016-10-30T10:46:24.943Z,11056
2016-10-30T10:47:25.127Z,10912
2016-10-30T10:48:24.926Z,10768
2016-10-30T10:49:25.219Z,10648
2016-10-30T10:50:25.200Z,10184
2016-10-30T10:51:24.880Z,9828
2016-10-30T10:52:25.334Z,10412
2016-10-30T10:53:25.203Z,11180
2016-10-30T10:54:25.160Z,11976
2016-10-30T10:55:25.181Z,12568
2016-10-30T10:56:25.146Z,12332
2016-10-30T10:57:25.286Z,12188
2016-10-30T10:58:24.805Z,11916
2016-10-30T10:59:24.791Z,11592
2016-10-30T11:00:24.780Z,10964
2016-10-30T11:01:24.768Z,11320
2016-10-30T11:02:25.015Z,11280
2016-10-30T11:03:25.076Z,11468
2016-10-30T11:04:25.058Z,11516
2016-10-30T11:05:25.043Z,13268
2016-10-30T11:06:24.723Z,11548
2016-10-30T11:07:25.060Z,11944
2016-10-30T11:08:24.709Z,12372
2016-10-30T11:09:24.689Z,12764
2016-10-30T11:10:24.680Z,12780
2016-10-30T11:11:24.984Z,12344
2016-10-30T11:12:24.821Z,11804
2016-10-30T11:13:24.955Z,10796
2016-10-30T11:14:24.640Z,10132
2016-10-30T11:15:24.956Z,9696
2016-10-30T11:16:24.658Z,9928
2016-10-30T11:17:24.807Z,9688
2016-10-30T11:18:24.597Z,9468
2016-10-30T11:19:24.617Z,9408
2016-10-30T11:20:24.886Z,9428
2016-10-30T11:21:24.568Z,9640
2016-10-30T11:22:24.579Z,9668
2016-10-30T11:23:24.861Z,9596
2016-10-30T11:24:24.853Z,9792
2016-10-30T11:25:24.523Z,10124
2016-10-30T11:26:24.515Z,10668
2016-10-30T11:27:24.530Z,11196
2016-10-30T11:28:24.534Z,12288
2016-10-30T11:29:24.516Z,12148
2016-10-30T11:30:25.157Z,10240
2016-10-30T11:31:24.468Z,10948
2016-10-30T11:32:24.912Z,11664
2016-10-30T11:33:24.442Z,13424
2016-10-30T11:34:24.656Z,20512
2016-10-30T11:35:24.747Z,15988
2016-10-30T11:36:24.730Z,10108
2016-10-30T11:37:24.555Z,10004
2016-10-30T11:38:24.702Z,10596
2016-10-30T11:39:24.696Z,11932
2016-10-30T11:40:24.386Z,18208
2016-10-30T11:41:24.366Z,14288
2016-10-30T11:42:24.548Z,17120
2016-10-30T11:43:24.351Z,16448
2016-10-30T11:44:24.654Z,17312
2016-10-30T11:45:24.635Z,26144
2016-10-30T11:46:25.285Z,46048
2016-10-30T11:47:24.459Z,29088
2016-10-30T11:48:24.304Z,39168
2016-10-30T11:49:24.599Z,30304
2016-10-30T11:50:24.600Z,21024
2016-10-30T11:51:24.280Z,19008
2016-10-30T11:52:24.267Z,17280
2016-10-30T11:53:24.275Z,16448
2016-10-30T11:54:24.254Z,18240
2016-10-30T11:55:24.242Z,15372
2016-10-30T11:56:24.571Z,14436
2016-10-30T11:57:24.563Z,23200
2016-10-30T11:58:24.247Z,18240
2016-10-30T11:59:24.746Z,18176
2016-10-30T12:00:24.548Z,17760
2016-10-30T12:01:24.527Z,15840
2016-10-30T12:02:24.235Z,13816
2016-10-30T12:03:24.201Z,13328
2016-10-30T12:04:24.178Z,13520
2016-10-30T12:05:24.187Z,11668
2016-10-30T12:06:24.206Z,11216
2016-10-30T12:07:24.169Z,11184
2016-10-30T12:08:24.165Z,11264
2016-10-30T12:09:24.468Z,11872
2016-10-30T12:10:24.153Z,12436
2016-10-30T12:11:24.133Z,21088
2016-10-30T12:12:24.133Z,13576
2016-10-30T12:13:24.438Z,14428
2016-10-30T12:14:24.122Z,15656
2016-10-30T12:15:24.119Z,30208
2016-10-30T12:16:24.106Z,19584
2016-10-30T12:17:24.417Z,16512
2016-10-30T12:18:24.400Z,16800
2016-10-30T12:19:24.096Z,22016
2016-10-30T12:20:24.395Z,17152
2016-10-30T12:21:24.377Z,14744
2016-10-30T12:22:24.369Z,14808
2016-10-30T12:23:24.051Z,14628
2016-10-30T12:24:24.041Z,12704
2016-10-30T12:25:24.042Z,11156
2016-10-30T12:26:24.651Z,9852
2016-10-30T12:27:24.035Z,8760
2016-10-30T12:28:24.026Z,8180
2016-10-30T12:29:24.329Z,8324
2016-10-30T12:30:24.004Z,9116
2016-10-30T12:31:24.002Z,9844
2016-10-30T12:32:24.039Z,11840
2016-10-30T12:33:24.641Z,18080
2016-10-30T12:34:24.012Z,32800
2016-10-30T12:35:23.963Z,33248
2016-10-30T12:36:24.277Z,37952
2016-10-30T12:37:24.592Z,36160
2016-10-30T12:38:23.941Z,22944
2016-10-30T12:39:23.930Z,28896
2016-10-30T12:40:24.280Z,31776
2016-10-30T12:41:24.576Z,30592
2016-10-30T12:42:24.245Z,23872
2016-10-30T12:43:24.224Z,28960
2016-10-30T12:44:24.214Z,32096
2016-10-30T12:45:23.930Z,28768
2016-10-30T12:46:24.205Z,33280
2016-10-30T12:47:23.887Z,30880
2016-10-30T12:48:24.238Z,22368
2016-10-30T12:49:23.875Z,16064
2016-10-30T12:50:23.889Z,16288
2016-10-30T12:51:24.203Z,13912
2016-10-30T12:52:23.853Z,12060
2016-10-30T12:53:24.682Z,11584
2016-10-30T12:54:23.856Z,19744
2016-10-30T12:55:24.158Z,22848
2016-10-30T12:56:24.230Z,22944
2016-10-30T12:57:23.847Z,25088
2016-10-30T12:58:23.833Z,29632
2016-10-30T12:59:24.136Z,27872
2016-10-30T13:00:23.818Z,22144
2016-10-30T13:01:24.129Z,28448
2016-10-30T13:02:23.816Z,29152
2016-10-30T13:03:24.273Z,28032
2016-10-30T13:04:24.123Z,28032
2016-10-30T13:05:23.805Z,32512
2016-10-30T13:06:24.122Z,37792
2016-10-30T13:07:23.787Z,39296
2016-10-30T13:08:23.825Z,22432
2016-10-30T13:09:23.773Z,38720
2016-10-30T13:10:23.784Z,16736
2016-10-30T13:11:23.774Z,17664
2016-10-30T13:12:23.773Z,15360
2016-10-30T13:13:23.944Z,13264
2016-10-30T13:14:24.066Z,10200
2016-10-30T13:15:23.754Z,9228
2016-10-30T13:16:23.752Z,8892
2016-10-30T13:17:24.068Z,9240
2016-10-30T13:18:23.777Z,9116
2016-10-30T13:19:23.785Z,9492
2016-10-30T13:20:24.057Z,9200
2016-10-30T13:21:23.728Z,8132
2016-10-30T13:22:23.721Z,7148
2016-10-30T13:23:23.773Z,6404
2016-10-30T13:24:24.031Z,5496
2016-10-30T13:25:23.706Z,4820
2016-10-30T13:26:23.697Z,4564
2016-10-30T13:27:23.696Z,4520
2016-10-30T13:28:23.838Z,4676
2016-10-30T13:29:23.703Z,4848
2016-10-30T13:30:23.680Z,4700
2016-10-30T13:31:23.674Z,5012
2016-10-30T13:32:23.671Z,4856
2016-10-30T13:33:23.973Z,4748
2016-10-30T13:34:23.982Z,4280
2016-10-30T13:35:23.641Z,4168
2016-10-30T13:36:23.636Z,4144
2016-10-30T13:37:23.628Z,4188
2016-10-30T13:38:23.621Z,4236
2016-10-30T13:39:23.632Z,4292
2016-10-30T13:40:24.587Z,4528
2016-10-30T13:41:23.609Z,4956
2016-10-30T13:42:24.251Z,5356
2016-10-30T13:43:24.054Z,5436
2016-10-30T13:44:23.588Z,5444
2016-10-30T13:45:23.579Z,5392
2016-10-30T13:46:23.566Z,5208
2016-10-30T13:47:23.555Z,4880
2016-10-30T13:48:23.904Z,4652
2016-10-30T13:49:23.852Z,4612
2016-10-30T13:50:23.524Z,4548
2016-10-30T13:51:23.835Z,4320
2016-10-30T13:52:23.828Z,3992